createdAt,value
2022-09-07T00:00:59.260Z,3.90
2022-09-07T00:03:25.932Z,3.17
2022-09-07T00:05:52.496Z,1.60
2022-09-07T00:08:22.378Z,2.13
2022-09-07T00:10:59.916Z,7.20
2022-09-07T00:13:28.742Z,2.37
2022-09-07T00:15:55.280Z,2.53
2022-09-07T00:18:22.055Z,4.90
2022-09-07T00:21:04.884Z,4.10
2022-09-07T00:23:32.262Z,4.90
2022-09-07T00:26:00.920Z,2.33
2022-09-07T00:28:27.375Z,3.27
2022-09-07T00:30:54.020Z,4.30
2022-09-07T00:33:20.518Z,4.90
2022-09-07T00:35:47.156Z,7.33
2022-09-07T00:38:13.705Z,3.87
2022-09-07T00:40:40.341Z,6.73
2022-09-07T00:43:07.859Z,3.13
2022-09-07T00:45:34.243Z,2.67
2022-09-07T00:48:17.051Z,5.93
2022-09-07T00:50:53.406Z,5.63
2022-09-07T00:53:24.474Z,4.63
2022-09-07T00:55:53.032Z,3.20
2022-09-07T00:58:21.928Z,3.67
2022-09-07T01:03:42.984Z,5.97
2022-09-07T01:06:17.100Z,2.63
2022-09-07T01:08:45.021Z,3.20
2022-09-07T01:11:12.136Z,2.13
2022-09-07T01:13:43.907Z,6.03
2022-09-07T01:16:27.718Z,3.67
2022-09-07T01:19:11.568Z,3.60
2022-09-07T01:22:10.087Z,3.40
2022-09-07T01:24:58.224Z,3.00
2022-09-07T01:27:58.422Z,7.17
2022-09-07T01:30:25.923Z,2.53
2022-09-07T01:33:20.315Z,3.00
2022-09-07T01:36:03.624Z,1.83
2022-09-07T01:38:30.076Z,4.10
2022-09-07T01:41:11.592Z,2.87
2022-09-07T01:44:09.601Z,2.50
2022-09-07T01:47:02.703Z,3.50
2022-09-07T01:49:45.463Z,3.30
2022-09-07T01:52:19.090Z,4.30
2022-09-07T01:54:51.326Z,3.60
2022-09-07T01:57:30.498Z,2.37
2022-09-07T02:00:11.505Z,3.60
2022-09-07T02:02:48.832Z,4.00
2022-09-07T02:05:31.869Z,2.10
2022-09-07T02:08:04.900Z,2.50
2022-09-07T02:10:40.439Z,4.77
2022-09-07T02:13:13.628Z,2.47
2022-09-07T02:15:58.742Z,2.57
2022-09-07T02:18:30.691Z,3.30
2022-09-07T02:20:59.279Z,2.73
2022-09-07T02:23:30.430Z,2.57
2022-09-07T02:26:02.524Z,3.83
2022-09-07T02:28:32.679Z,3.37
2022-09-07T02:31:00.386Z,3.60
2022-09-07T02:33:28.226Z,4.70
2022-09-07T02:35:55.320Z,3.20
2022-09-07T02:38:22.087Z,2.40
2022-09-07T02:40:56.359Z,2.77
2022-09-07T02:43:25.042Z,3.30
2022-09-07T02:46:19.787Z,2.03
2022-09-07T02:49:01.897Z,6.23
2022-09-07T02:51:46.980Z,5.33
2022-09-07T02:54:42.741Z,3.50
2022-09-07T02:57:42.842Z,2.50
2022-09-07T03:00:20.698Z,2.37
2022-09-07T03:03:16.391Z,2.97
2022-09-07T03:05:50.325Z,3.47
2022-09-07T03:08:24.762Z,2.93
2022-09-07T03:10:53.611Z,3.23
2022-09-07T03:13:26.836Z,4.20
2022-09-07T03:15:56.002Z,5.23
2022-09-07T03:18:24.453Z,2.40
2022-09-07T03:20:50.971Z,2.63
2022-09-07T03:23:17.421Z,3.27
2022-09-07T03:25:44.152Z,2.57
2022-09-07T03:28:10.736Z,3.73
2022-09-07T03:30:41.575Z,7.50
2022-09-07T03:33:08.035Z,3.03
2022-09-07T03:35:34.420Z,8.13
2022-09-07T03:38:01.687Z,4.40
2022-09-07T03:40:28.088Z,3.60
2022-09-07T03:42:54.522Z,3.27
2022-09-07T03:45:20.962Z,4.07
2022-09-07T03:47:47.456Z,4.13
2022-09-07T03:50:13.889Z,3.57
2022-09-07T03:52:40.295Z,2.60
2022-09-07T03:55:07.039Z,5.50
2022-09-07T03:57:33.794Z,5.27
2022-09-07T04:00:00.243Z,4.70
2022-09-07T04:02:26.918Z,7.73
2022-09-07T04:04:53.352Z,6.83
2022-09-07T04:07:19.752Z,5.60
2022-09-07T04:09:46.159Z,8.47
2022-09-07T04:12:12.547Z,8.27
2022-09-07T04:14:38.982Z,9.07
2022-09-07T04:17:05.578Z,11.37
2022-09-07T04:19:32.171Z,10.50
2022-09-07T04:21:58.658Z,11.13
2022-09-07T04:24:25.202Z,12.27
2022-09-07T04:26:52.316Z,10.30
2022-09-07T04:29:18.699Z,9.30
2022-09-07T04:31:45.084Z,15.40
2022-09-07T04:34:11.889Z,13.13
2022-09-07T04:36:38.378Z,14.60
2022-09-07T04:39:05.385Z,8.80
2022-09-07T04:41:34.171Z,7.07
2022-09-07T04:44:01.935Z,5.03
2022-09-07T04:46:31.013Z,7.67
2022-09-07T04:48:59.569Z,6.40
2022-09-07T04:51:29.290Z,6.63
2022-09-07T04:53:57.462Z,5.53
2022-09-07T04:56:24.217Z,5.00
2022-09-07T04:58:51.168Z,6.00
2022-09-07T05:01:20.621Z,9.43
2022-09-07T05:03:47.624Z,8.30
2022-09-07T05:06:16.253Z,8.10
2022-09-07T05:08:45.607Z,7.00
2022-09-07T05:11:12.932Z,9.87
2022-09-07T05:13:39.967Z,4.83
2022-09-07T05:16:12.586Z,4.73
2022-09-07T05:18:39.102Z,5.03
2022-09-07T05:21:14.871Z,6.00
2022-09-07T05:23:42.208Z,6.53
2022-09-07T05:26:09.769Z,5.60
2022-09-07T05:28:37.026Z,5.37
2022-09-07T05:36:37.779Z,6.60
2022-09-07T05:39:05.728Z,7.97
2022-09-07T05:41:32.131Z,8.10
2022-09-07T05:46:45.038Z,6.33
2022-09-07T05:49:11.710Z,6.13
2022-09-07T05:51:38.787Z,6.10
2022-09-07T05:54:05.340Z,6.00
2022-09-07T05:56:35.280Z,5.60
2022-09-07T05:59:01.881Z,6.53
2022-09-07T06:01:28.336Z,7.33
2022-09-07T06:03:54.749Z,9.00
2022-09-07T06:06:21.607Z,6.93
2022-09-07T06:08:50.398Z,7.20
2022-09-07T06:11:20.541Z,9.10
2022-09-07T06:13:47.488Z,9.43
2022-09-07T06:16:15.195Z,11.40
2022-09-07T06:18:43.733Z,8.03
2022-09-07T06:21:13.196Z,14.37
2022-09-07T06:23:41.126Z,11.70
2022-09-07T06:26:08.293Z,8.93
2022-09-07T06:28:39.780Z,6.57
2022-09-07T06:31:11.957Z,9.13
2022-09-07T06:33:38.650Z,9.73
2022-09-07T06:36:08.051Z,9.77
2022-09-07T06:38:37.506Z,8.70
2022-09-07T06:43:54.433Z,8.67
2022-09-07T06:49:07.613Z,8.53
2022-09-07T06:51:34.092Z,9.50
2022-09-07T06:56:48.241Z,15.13
2022-09-07T06:59:14.660Z,7.80
2022-09-07T07:01:41.072Z,7.80
2022-09-07T07:04:07.481Z,8.70
2022-09-07T07:06:35.628Z,8.23
2022-09-07T07:09:03.430Z,7.60
2022-09-07T07:11:31.172Z,7.80
2022-09-07T07:13:58.169Z,7.83
2022-09-07T07:16:24.735Z,8.50
2022-09-07T07:18:55.690Z,10.70
2022-09-07T07:21:22.690Z,9.43
2022-09-07T07:23:53.652Z,10.27
2022-09-07T07:26:22.329Z,10.73
2022-09-07T07:29:06.813Z,13.97
2022-09-07T07:31:34.953Z,11.70
2022-09-07T07:34:01.964Z,16.60
2022-09-07T07:36:28.371Z,11.77
2022-09-07T07:44:17.831Z,12.07
2022-09-07T07:46:50.770Z,9.60
2022-09-07T07:49:17.567Z,9.53
2022-09-07T07:54:32.542Z,10.17
2022-09-07T07:56:58.905Z,8.60
2022-09-07T07:59:26.027Z,9.70
2022-09-07T08:01:52.482Z,8.00
2022-09-07T08:04:18.998Z,8.40
2022-09-07T08:06:45.352Z,11.93
2022-09-07T08:09:12.079Z,8.80
2022-09-07T08:11:40.066Z,8.40
2022-09-07T08:14:08.528Z,8.40
2022-09-07T08:16:36.263Z,8.60
2022-09-07T08:19:02.893Z,7.50
2022-09-07T08:21:29.807Z,7.33
2022-09-07T08:23:56.315Z,5.10
2022-09-07T08:26:22.774Z,7.47
2022-09-07T08:28:49.299Z,5.53
2022-09-07T08:31:16.533Z,4.80
2022-09-07T08:33:43.624Z,7.47
2022-09-07T08:36:13.323Z,4.17
2022-09-07T08:38:40.165Z,5.17
2022-09-07T08:41:30.747Z,6.50
2022-09-07T08:44:06.432Z,4.43
2022-09-07T08:46:38.419Z,4.50
2022-09-07T08:49:10.518Z,3.63
2022-09-07T08:51:43.329Z,8.70
2022-09-07T08:54:13.644Z,3.83
2022-09-07T08:57:20.506Z,5.70
2022-09-07T08:59:46.535Z,4.37
2022-09-07T09:02:34.020Z,3.97
2022-09-07T09:05:20.122Z,2.73
2022-09-07T09:07:55.505Z,4.63
2022-09-07T09:10:54.184Z,5.23
2022-09-07T09:13:52.069Z,3.37
2022-09-07T09:16:38.161Z,3.33
2022-09-07T09:19:28.119Z,4.40
2022-09-07T09:22:17.228Z,3.73
2022-09-07T09:24:51.740Z,2.97
2022-09-07T09:27:18.160Z,3.33
2022-09-07T09:29:44.674Z,5.50
2022-09-07T09:32:49.657Z,4.37
2022-09-07T09:35:23.538Z,3.43
2022-09-07T09:37:49.885Z,3.10
2022-09-07T09:40:30.049Z,4.63
2022-09-07T09:43:03.353Z,5.70
2022-09-07T09:48:32.982Z,3.90
2022-09-07T09:54:07.636Z,3.40
2022-09-07T09:56:39.569Z,4.20
2022-09-07T10:05:27.447Z,5.30
2022-09-07T10:07:54.460Z,3.97
2022-09-07T10:10:21.154Z,4.87
2022-09-07T10:12:47.604Z,5.50
2022-09-07T10:15:39.727Z,4.73
2022-09-07T10:18:16.029Z,4.50
2022-09-07T10:20:42.401Z,2.80
2022-09-07T10:23:20.717Z,3.27
2022-09-07T10:25:47.568Z,4.43
2022-09-07T10:28:17.882Z,3.50
2022-09-07T10:31:02.758Z,3.63
2022-09-07T10:36:58.974Z,3.33
2022-09-07T10:39:39.487Z,6.03
2022-09-07T10:42:29.422Z,4.10
2022-09-07T10:45:23.888Z,3.80
2022-09-07T10:48:20.791Z,4.03
2022-09-07T10:50:53.427Z,3.37
2022-09-07T10:57:03.491Z,4.83
2022-09-07T11:00:11.544Z,3.47
2022-09-07T11:06:04.342Z,7.03
2022-09-07T11:12:02.772Z,3.40
2022-09-07T11:14:37.121Z,4.93
2022-09-07T11:17:13.013Z,3.20
2022-09-07T11:20:14.890Z,3.83
2022-09-07T11:23:11.881Z,4.73
2022-09-07T11:25:46.644Z,2.30
2022-09-07T11:28:17.837Z,3.23
2022-09-07T11:30:50.024Z,2.60
2022-09-07T11:33:23.071Z,3.57
2022-09-07T11:36:03.532Z,2.03
2022-09-07T11:38:44.271Z,3.70
2022-09-07T11:41:16.384Z,2.07
2022-09-07T11:43:50.617Z,1.87
2022-09-07T11:46:29.527Z,1.70
2022-09-07T11:48:57.823Z,4.00
2022-09-07T11:51:46.398Z,4.80
2022-09-07T11:54:32.409Z,2.00
2022-09-07T11:57:08.799Z,1.60
2022-09-07T11:59:58.874Z,2.27
2022-09-07T12:03:02.712Z,2.20
2022-09-07T12:06:06.571Z,1.70
2022-09-07T12:09:06.940Z,3.90
2022-09-07T12:12:25.783Z,2.23
2022-09-07T12:15:33.732Z,2.40
2022-09-07T12:18:31.071Z,1.80
2022-09-07T12:20:57.682Z,3.80
2022-09-07T12:23:31.619Z,1.83
2022-09-07T12:26:35.831Z,3.67
2022-09-07T12:29:02.172Z,2.03
2022-09-07T12:31:58.583Z,1.10
2022-09-07T12:34:32.175Z,1.60
2022-09-07T12:37:00.193Z,3.00
2022-09-07T12:39:28.601Z,3.20
2022-09-07T12:45:28.747Z,2.80
2022-09-07T12:48:05.220Z,1.83
2022-09-07T12:50:40.290Z,2.60
2022-09-07T12:53:22.457Z,7.13
2022-09-07T12:56:16.421Z,1.77
2022-09-07T12:59:00.767Z,1.50
2022-09-07T13:01:32.355Z,1.60
2022-09-07T13:04:22.982Z,2.60
2022-09-07T13:07:20.437Z,1.77
2022-09-07T13:09:58.240Z,2.17
2022-09-07T13:12:57.773Z,2.37
2022-09-07T13:15:45.746Z,3.50
2022-09-07T13:18:27.616Z,2.20
2022-09-07T13:21:09.066Z,3.03
2022-09-07T13:23:38.972Z,1.97
2022-09-07T13:26:08.590Z,2.30
2022-09-07T13:28:40.944Z,1.53
2022-09-07T13:31:19.416Z,3.20
2022-09-07T13:33:48.826Z,1.10
2022-09-07T13:36:38.808Z,2.13
2022-09-07T13:39:09.544Z,1.20
2022-09-07T13:41:42.264Z,1.93
2022-09-07T13:44:25.020Z,1.20
2022-09-07T13:47:06.529Z,1.27
2022-09-07T13:50:00.741Z,1.70
2022-09-07T13:52:54.258Z,1.53
2022-09-07T13:55:31.764Z,2.67
2022-09-07T13:58:06.400Z,2.17
2022-09-07T14:00:33.858Z,1.57
2022-09-07T14:03:05.673Z,1.10
2022-09-07T14:05:32.157Z,2.23
2022-09-07T14:07:58.761Z,1.43
2022-09-07T14:10:26.372Z,2.80
2022-09-07T14:13:05.091Z,1.57
2022-09-07T14:15:41.695Z,2.30
2022-09-07T14:18:14.487Z,3.20
2022-09-07T14:20:45.408Z,1.57
2022-09-07T14:23:29.945Z,2.70
2022-09-07T14:26:18.565Z,1.30
2022-09-07T14:28:47.798Z,1.30
2022-09-07T14:31:17.074Z,1.37
2022-09-07T14:33:55.709Z,1.43
2022-09-07T14:36:44.213Z,2.03
2022-09-07T14:39:14.091Z,4.20
2022-09-07T14:41:42.013Z,1.10
2022-09-07T14:44:30.000Z,1.47
2022-09-07T14:46:59.119Z,1.70
2022-09-07T14:49:25.602Z,1.63
2022-09-07T14:51:53.778Z,1.40
2022-09-07T14:54:22.915Z,1.57
2022-09-07T14:57:11.650Z,1.93
2022-09-07T14:59:44.264Z,1.63
2022-09-07T15:02:19.795Z,3.00
2022-09-07T15:04:47.738Z,2.03
2022-09-07T15:07:37.944Z,1.17
2022-09-07T15:10:23.649Z,1.87
2022-09-07T15:12:55.200Z,3.77
2022-09-07T15:15:26.255Z,1.50
2022-09-07T15:17:55.588Z,1.10
2022-09-07T15:20:46.021Z,4.03
2022-09-07T15:23:17.786Z,1.20
2022-09-07T15:25:50.920Z,1.73
2022-09-07T15:34:16.753Z,1.97
2022-09-07T15:36:48.626Z,2.03
2022-09-07T15:39:19.204Z,2.33
2022-09-07T15:41:45.771Z,1.47
2022-09-07T15:44:13.750Z,1.90
2022-09-07T15:46:40.628Z,1.87
2022-09-07T15:49:07.279Z,1.27
2022-09-07T15:54:20.901Z,1.70
2022-09-07T15:59:34.091Z,2.37
2022-09-07T16:02:00.685Z,4.27
2022-09-07T16:04:28.594Z,2.20
2022-09-07T16:06:55.104Z,1.90
2022-09-07T16:09:22.058Z,6.30
2022-09-07T16:11:50.069Z,2.30
2022-09-07T16:14:17.462Z,3.33
2022-09-07T16:19:30.436Z,3.70
2022-09-07T16:21:57.609Z,2.50
2022-09-07T16:24:24.191Z,1.37
2022-09-07T16:26:50.563Z,2.03
2022-09-07T16:29:17.877Z,2.83
2022-09-07T16:34:30.769Z,3.40
2022-09-07T16:36:57.171Z,2.57
2022-09-07T16:39:23.573Z,4.80
2022-09-07T16:41:50.432Z,3.97
2022-09-07T16:44:16.904Z,5.60
2022-09-07T16:46:43.270Z,4.50
2022-09-07T16:49:11.065Z,2.60
2022-09-07T16:51:39.548Z,3.60
2022-09-07T16:54:06.563Z,4.80
2022-09-07T16:56:38.325Z,4.90
2022-09-07T16:59:06.892Z,3.30
2022-09-07T17:01:35.433Z,5.87
2022-09-07T17:04:05.542Z,3.93
2022-09-07T17:06:34.510Z,2.10
2022-09-07T17:09:00.872Z,2.70
2022-09-07T17:11:33.279Z,2.07
2022-09-07T17:14:00.694Z,4.60
2022-09-07T17:16:30.027Z,3.93
2022-09-07T17:21:46.466Z,5.90
2022-09-07T17:24:12.926Z,2.73
2022-09-07T17:26:42.320Z,2.37
2022-09-07T17:29:09.550Z,6.43
2022-09-07T17:34:24.501Z,1.60
2022-09-07T17:36:51.531Z,5.40
2022-09-07T17:39:19.280Z,4.40
2022-09-07T17:41:48.638Z,2.77
2022-09-07T17:44:15.493Z,1.80
2022-09-07T17:46:41.863Z,5.30
2022-09-07T17:49:16.361Z,2.60
2022-09-07T17:51:43.659Z,2.50
2022-09-07T17:54:14.894Z,3.90
2022-09-07T17:56:42.209Z,2.67
2022-09-07T18:01:56.148Z,2.03
2022-09-07T18:04:23.761Z,5.20
2022-09-07T18:06:50.570Z,2.50
2022-09-07T18:09:17.331Z,1.77
2022-09-07T18:11:45.544Z,2.50
2022-09-07T18:14:14.280Z,1.80
2022-09-07T18:16:41.255Z,1.70
2022-09-07T18:19:08.501Z,4.60
2022-09-07T18:21:37.317Z,2.13
2022-09-07T18:24:07.529Z,2.03
2022-09-07T18:26:38.284Z,1.90
2022-09-07T18:29:10.414Z,2.80
2022-09-07T18:31:45.831Z,3.87
2022-09-07T18:34:12.374Z,2.23
2022-09-07T18:36:40.699Z,1.93
2022-09-07T18:39:07.352Z,3.03
2022-09-07T18:41:34.809Z,2.77
2022-09-07T18:44:01.370Z,3.80
2022-09-07T18:46:28.284Z,1.87
2022-09-07T18:48:55.350Z,3.30
2022-09-07T18:51:21.897Z,3.50
2022-09-07T18:53:48.407Z,1.70
2022-09-07T18:56:21.089Z,2.50
2022-09-07T18:58:48.185Z,2.30
2022-09-07T19:01:16.595Z,1.57
2022-09-07T19:03:44.783Z,4.73
2022-09-07T19:06:15.186Z,3.80
2022-09-07T19:08:43.408Z,2.27
2022-09-07T19:11:37.335Z,2.10
2022-09-07T19:14:06.634Z,2.80
2022-09-07T19:16:33.195Z,1.90
2022-09-07T19:19:01.903Z,4.90
2022-09-07T19:21:33.704Z,1.90
2022-09-07T19:24:06.432Z,1.87
2022-09-07T19:26:39.488Z,4.90
2022-09-07T19:29:15.234Z,4.83
2022-09-07T19:31:44.873Z,1.97
2022-09-07T19:34:11.502Z,2.00
2022-09-07T19:36:38.513Z,3.00
2022-09-07T19:39:05.785Z,2.90
2022-09-07T19:41:33.647Z,2.00
2022-09-07T19:44:00.066Z,3.60
2022-09-07T19:46:26.506Z,4.53
2022-09-07T19:48:52.967Z,2.07
2022-09-07T19:51:19.873Z,3.87
2022-09-07T19:53:47.017Z,2.63
2022-09-07T19:56:15.875Z,2.10
2022-09-07T19:58:44.184Z,6.20
2022-09-07T20:01:17.167Z,3.30
2022-09-07T20:03:45.539Z,2.20
2022-09-07T20:06:14.628Z,4.80
2022-09-07T20:08:42.634Z,3.27
2022-09-07T20:11:11.910Z,3.20
2022-09-07T20:13:39.422Z,2.13
2022-09-07T20:16:14.190Z,3.20
2022-09-07T20:18:40.902Z,2.80
2022-09-07T20:21:09.885Z,2.63
2022-09-07T20:23:36.396Z,4.67
2022-09-07T20:26:08.955Z,4.00
2022-09-07T20:28:36.705Z,3.37
2022-09-07T20:31:08.410Z,4.20
2022-09-07T20:33:35.380Z,5.10
2022-09-07T20:36:06.158Z,3.27
2022-09-07T20:38:38.152Z,6.77
2022-09-07T20:41:04.547Z,1.70
2022-09-07T20:43:31.079Z,2.60
2022-09-07T20:45:58.587Z,3.73
2022-09-07T20:48:25.589Z,2.20
2022-09-07T20:51:13.015Z,3.37
2022-09-07T20:53:39.931Z,4.33
2022-09-07T20:56:23.905Z,3.17
2022-09-07T20:58:55.477Z,4.23
2022-09-07T21:01:22.535Z,3.80
2022-09-07T21:03:51.513Z,4.53
2022-09-07T21:06:19.185Z,3.63
2022-09-07T21:08:47.138Z,2.70
2022-09-07T21:11:16.753Z,2.93
2022-09-07T21:13:43.705Z,2.77
2022-09-07T21:16:12.646Z,2.40
2022-09-07T21:18:39.841Z,6.57
2022-09-07T21:21:22.405Z,4.30
2022-09-07T21:23:49.347Z,3.80
2022-09-07T21:26:20.830Z,3.57
2022-09-07T21:28:47.213Z,3.00
2022-09-07T21:31:13.635Z,3.00
2022-09-07T21:33:40.096Z,2.10
2022-09-07T21:36:12.418Z,4.70
2022-09-07T21:38:41.119Z,2.53
2022-09-07T21:41:13.077Z,3.23
2022-09-07T21:43:39.615Z,3.10
2022-09-07T21:46:12.270Z,2.77
2022-09-07T21:48:39.241Z,2.03
2022-09-07T21:51:06.300Z,3.93
2022-09-07T21:53:33.311Z,3.70
2022-09-07T21:56:02.273Z,4.73
2022-09-07T21:58:29.675Z,2.23
2022-09-07T22:00:56.966Z,2.83
2022-09-07T22:03:25.237Z,2.73
2022-09-07T22:05:51.869Z,4.33
2022-09-07T22:08:18.863Z,3.10
2022-09-07T22:10:45.725Z,3.00
2022-09-07T22:13:12.119Z,3.63
2022-09-07T22:15:40.776Z,3.77
2022-09-07T22:18:11.363Z,3.37
2022-09-07T22:20:38.048Z,2.40
2022-09-07T22:23:07.119Z,5.30
2022-09-07T22:25:33.561Z,5.13
2022-09-07T22:28:00.121Z,2.50
2022-09-07T22:30:26.734Z,4.20
2022-09-07T22:32:53.400Z,3.10
2022-09-07T22:35:19.837Z,4.40
2022-09-07T22:37:46.348Z,3.30
2022-09-07T22:40:14.725Z,3.43
2022-09-07T22:42:41.852Z,4.10
2022-09-07T22:45:08.783Z,3.93
2022-09-07T22:47:35.171Z,5.90
2022-09-07T22:50:01.582Z,2.77
2022-09-07T22:52:27.967Z,2.30
2022-09-07T22:54:54.385Z,4.37
2022-09-07T22:57:20.784Z,2.70
2022-09-07T22:59:47.246Z,3.00
2022-09-07T23:02:13.632Z,4.20
2022-09-07T23:04:40.176Z,6.30
2022-09-07T23:07:07.650Z,3.73
2022-09-07T23:09:34.115Z,3.23
2022-09-07T23:12:00.541Z,2.77
2022-09-07T23:14:26.903Z,2.83
2022-09-07T23:16:53.321Z,2.27
2022-09-07T23:19:20.352Z,4.47
2022-09-07T23:21:47.286Z,3.10
2022-09-07T23:24:16.000Z,5.23
2022-09-07T23:26:42.884Z,2.10
2022-09-07T23:29:14.396Z,6.70
2022-09-07T23:31:41.561Z,4.20
2022-09-07T23:34:08.568Z,3.00
2022-09-07T23:36:34.942Z,2.93
2022-09-07T23:39:01.378Z,4.57
2022-09-07T23:41:28.792Z,2.67
2022-09-07T23:43:55.704Z,2.87
2022-09-07T23:46:22.450Z,3.00
2022-09-07T23:48:49.353Z,5.00
2022-09-07T23:51:19.909Z,3.50
2022-09-07T23:53:49.428Z,3.00
2022-09-07T23:56:15.913Z,4.20
2022-09-07T23:58:42.371Z,2.70
